Terminal Aerodrome Forecast
Issued by NWS Lake Charles, LA

Home | Current Version | Previous Version | Text Only | Print | Product List | Glossary On
Versions: 1 2 3 4 5 6 7 8 9 10 11 12 13 14
000
FTUS44 KLCH 051720
TAFBPT
TAF
KBPT 051720Z 0518/0618 18010KT P6SM VCTS SCT035CB
     FM060000 VRB03KT P6SM BKN250
     FM060600 17006KT P6SM OVC020
     FM061500 17013KT P6SM SCT050=

USA.gov is the U.S. government's official web portal to all federal, state and local government web resources and services.